sensor_id;sensor_type;location;lat;lon;timestamp;P1;durP1;ratioP1;P2;durP2;ratioP2
1020;SDS011;499;42.648;23.270;2022-07-03T00:01:56;16.33;;;14.83;;
1020;SDS011;499;42.648;23.270;2022-07-03T00:04:23;15.83;;;14.53;;
1020;SDS011;499;42.648;23.270;2022-07-03T00:06:52;16.23;;;14.57;;
1020;SDS011;499;42.648;23.270;2022-07-03T00:09:19;15.40;;;14.00;;
1020;SDS011;499;42.648;23.270;2022-07-03T00:11:47;14.70;;;13.37;;
1020;SDS011;499;42.648;23.270;2022-07-03T00:14:14;15.00;;;13.77;;
1020;SDS011;499;42.648;23.270;2022-07-03T00:16:41;13.90;;;12.68;;
1020;SDS011;499;42.648;23.270;2022-07-03T00:19:08;15.43;;;14.20;;
1020;SDS011;499;42.648;23.270;2022-07-03T00:21:48;15.70;;;14.20;;
1020;SDS011;499;42.648;23.270;2022-07-03T00:24:23;15.23;;;13.83;;
1020;SDS011;499;42.648;23.270;2022-07-03T00:26:52;14.87;;;13.67;;
1020;SDS011;499;42.648;23.270;2022-07-03T00:29:21;14.80;;;13.50;;
1020;SDS011;499;42.648;23.270;2022-07-03T00:31:49;15.00;;;13.80;;
1020;SDS011;499;42.648;23.270;2022-07-03T00:34:17;14.90;;;13.67;;
1020;SDS011;499;42.648;23.270;2022-07-03T00:36:46;14.63;;;13.40;;
1020;SDS011;499;42.648;23.270;2022-07-03T00:39:15;15.63;;;14.33;;
1020;SDS011;499;42.648;23.270;2022-07-03T00:41:43;15.43;;;14.13;;
1020;SDS011;499;42.648;23.270;2022-07-03T00:44:11;15.67;;;14.27;;
1020;SDS011;499;42.648;23.270;2022-07-03T00:46:38;14.57;;;13.37;;
1020;SDS011;499;42.648;23.270;2022-07-03T00:49:08;15.57;;;14.27;;
1020;SDS011;499;42.648;23.270;2022-07-03T00:51:37;16.17;;;14.77;;
1020;SDS011;499;42.648;23.270;2022-07-03T00:54:07;17.50;;;15.63;;
1020;SDS011;499;42.648;23.270;2022-07-03T00:56:39;16.30;;;14.80;;
1020;SDS011;499;42.648;23.270;2022-07-03T00:59:12;15.33;;;14.07;;
1020;SDS011;499;42.648;23.270;2022-07-03T01:01:39;16.47;;;15.07;;
1020;SDS011;499;42.648;23.270;2022-07-03T01:04:10;15.83;;;14.57;;
1020;SDS011;499;42.648;23.270;2022-07-03T01:06:48;16.10;;;14.73;;
1020;SDS011;499;42.648;23.270;2022-07-03T01:09:21;16.07;;;14.67;;
1020;SDS011;499;42.648;23.270;2022-07-03T01:11:58;16.20;;;14.70;;
1020;SDS011;499;42.648;23.270;2022-07-03T01:14:32;16.63;;;15.33;;
1020;SDS011;499;42.648;23.270;2022-07-03T01:17:09;17.00;;;15.40;;
1020;SDS011;499;42.648;23.270;2022-07-03T01:19:46;16.53;;;15.20;;
1020;SDS011;499;42.648;23.270;2022-07-03T01:22:23;15.40;;;14.20;;
1020;SDS011;499;42.648;23.270;2022-07-03T01:27:53;15.33;;;14.13;;
1020;SDS011;499;42.648;23.270;2022-07-03T01:30:25;16.03;;;14.40;;
1020;SDS011;499;42.648;23.270;2022-07-03T01:32:56;16.30;;;15.00;;
1020;SDS011;499;42.648;23.270;2022-07-03T01:35:27;16.80;;;15.40;;
1020;SDS011;499;42.648;23.270;2022-07-03T01:38:01;16.30;;;14.60;;
1020;SDS011;499;42.648;23.270;2022-07-03T01:40:31;17.03;;;15.63;;
1020;SDS011;499;42.648;23.270;2022-07-03T01:43:01;16.40;;;15.00;;
1020;SDS011;499;42.648;23.270;2022-07-03T01:45:31;17.23;;;15.33;;
1020;SDS011;499;42.648;23.270;2022-07-03T01:47:59;17.47;;;15.90;;
1020;SDS011;499;42.648;23.270;2022-07-03T01:50:28;16.40;;;15.00;;
1020;SDS011;499;42.648;23.270;2022-07-03T01:52:56;16.20;;;14.90;;
1020;SDS011;499;42.648;23.270;2022-07-03T01:55:29;18.00;;;16.50;;
1020;SDS011;499;42.648;23.270;2022-07-03T01:57:57;17.47;;;15.97;;
1020;SDS011;499;42.648;23.270;2022-07-03T02:00:26;18.57;;;16.07;;
1020;SDS011;499;42.648;23.270;2022-07-03T02:02:59;17.80;;;16.40;;
1020;SDS011;499;42.648;23.270;2022-07-03T02:05:32;18.73;;;17.23;;
1020;SDS011;499;42.648;23.270;2022-07-03T02:08:11;17.55;;;16.05;;
1020;SDS011;499;42.648;23.270;2022-07-03T02:10:45;17.00;;;15.50;;
1020;SDS011;499;42.648;23.270;2022-07-03T02:13:19;19.00;;;17.30;;
1020;SDS011;499;42.648;23.270;2022-07-03T02:15:51;18.60;;;17.10;;
1020;SDS011;499;42.648;23.270;2022-07-03T02:18:26;19.10;;;17.50;;
1020;SDS011;499;42.648;23.270;2022-07-03T02:21:01;17.70;;;16.10;;
1020;SDS011;499;42.648;23.270;2022-07-03T02:23:30;17.73;;;16.23;;
1020;SDS011;499;42.648;23.270;2022-07-03T02:26:02;18.90;;;17.20;;
1020;SDS011;499;42.648;23.270;2022-07-03T02:28:34;18.13;;;16.43;;
1020;SDS011;499;42.648;23.270;2022-07-03T02:31:13;18.37;;;16.80;;
1020;SDS011;499;42.648;23.270;2022-07-03T02:33:44;18.20;;;16.70;;
1020;SDS011;499;42.648;23.270;2022-07-03T02:36:13;19.90;;;18.20;;
1020;SDS011;499;42.648;23.270;2022-07-03T02:38:43;18.80;;;17.20;;
1020;SDS011;499;42.648;23.270;2022-07-03T02:41:20;18.27;;;16.67;;
1020;SDS011;499;42.648;23.270;2022-07-03T02:43:52;19.73;;;17.90;;
1020;SDS011;499;42.648;23.270;2022-07-03T02:46:30;18.23;;;16.83;;
1020;SDS011;499;42.648;23.270;2022-07-03T02:49:21;18.57;;;16.93;;
1020;SDS011;499;42.648;23.270;2022-07-03T02:52:01;18.40;;;16.67;;
1020;SDS011;499;42.648;23.270;2022-07-03T02:54:42;18.23;;;16.10;;
1020;SDS011;499;42.648;23.270;2022-07-03T02:57:12;18.60;;;16.90;;
1020;SDS011;499;42.648;23.270;2022-07-03T02:59:51;17.83;;;16.23;;
1020;SDS011;499;42.648;23.270;2022-07-03T03:02:25;17.93;;;16.40;;
1020;SDS011;499;42.648;23.270;2022-07-03T03:05:15;17.83;;;16.40;;
1020;SDS011;499;42.648;23.270;2022-07-03T03:07:49;18.87;;;17.27;;
1020;SDS011;499;42.648;23.270;2022-07-03T03:10:29;19.60;;;17.80;;
1020;SDS011;499;42.648;23.270;2022-07-03T03:12:58;18.10;;;16.60;;
1020;SDS011;499;42.648;23.270;2022-07-03T03:15:30;18.17;;;16.77;;
1020;SDS011;499;42.648;23.270;2022-07-03T03:18:01;16.70;;;15.20;;
1020;SDS011;499;42.648;23.270;2022-07-03T03:20:31;18.77;;;17.20;;
1020;SDS011;499;42.648;23.270;2022-07-03T03:23:06;17.43;;;15.93;;
1020;SDS011;499;42.648;23.270;2022-07-03T03:25:37;17.77;;;16.37;;
1020;SDS011;499;42.648;23.270;2022-07-03T03:28:04;17.70;;;16.10;;
1020;SDS011;499;42.648;23.270;2022-07-03T03:30:31;16.97;;;15.50;;
1020;SDS011;499;42.648;23.270;2022-07-03T03:32:59;16.53;;;15.13;;
1020;SDS011;499;42.648;23.270;2022-07-03T03:35:27;16.03;;;14.70;;
1020;SDS011;499;42.648;23.270;2022-07-03T03:37:54;16.00;;;14.50;;
1020;SDS011;499;42.648;23.270;2022-07-03T03:40:21;14.57;;;13.27;;
1020;SDS011;499;42.648;23.270;2022-07-03T03:42:48;14.20;;;13.00;;
1020;SDS011;499;42.648;23.270;2022-07-03T03:45:15;13.30;;;12.30;;
1020;SDS011;499;42.648;23.270;2022-07-03T03:47:42;15.88;;;14.43;;
1020;SDS011;499;42.648;23.270;2022-07-03T03:50:11;14.13;;;12.93;;
1020;SDS011;499;42.648;23.270;2022-07-03T03:52:38;15.23;;;13.90;;
1020;SDS011;499;42.648;23.270;2022-07-03T03:55:06;18.80;;;17.20;;
1020;SDS011;499;42.648;23.270;2022-07-03T03:57:34;17.58;;;16.13;;
1020;SDS011;499;42.648;23.270;2022-07-03T04:00:02;19.17;;;17.40;;
1020;SDS011;499;42.648;23.270;2022-07-03T04:02:30;17.73;;;16.13;;
1020;SDS011;499;42.648;23.270;2022-07-03T04:04:57;19.40;;;17.50;;
1020;SDS011;499;42.648;23.270;2022-07-03T04:07:26;20.40;;;18.57;;
1020;SDS011;499;42.648;23.270;2022-07-03T04:09:53;20.77;;;18.87;;
1020;SDS011;499;42.648;23.270;2022-07-03T04:12:20;19.53;;;17.57;;
1020;SDS011;499;42.648;23.270;2022-07-03T04:14:47;19.83;;;18.13;;
1020;SDS011;499;42.648;23.270;2022-07-03T04:17:15;19.27;;;17.50;;
1020;SDS011;499;42.648;23.270;2022-07-03T04:19:42;19.87;;;18.10;;
1020;SDS011;499;42.648;23.270;2022-07-03T04:22:09;18.80;;;17.20;;
1020;SDS011;499;42.648;23.270;2022-07-03T04:24:38;19.23;;;17.67;;
1020;SDS011;499;42.648;23.270;2022-07-03T04:27:05;18.07;;;16.47;;
1020;SDS011;499;42.648;23.270;2022-07-03T04:29:32;17.87;;;16.27;;
1020;SDS011;499;42.648;23.270;2022-07-03T04:32:00;17.73;;;16.33;;
1020;SDS011;499;42.648;23.270;2022-07-03T04:34:27;19.73;;;17.87;;
1020;SDS011;499;42.648;23.270;2022-07-03T04:36:54;18.10;;;16.60;;
1020;SDS011;499;42.648;23.270;2022-07-03T04:39:21;18.30;;;16.60;;
1020;SDS011;499;42.648;23.270;2022-07-03T04:41:50;16.77;;;15.17;;
1020;SDS011;499;42.648;23.270;2022-07-03T04:44:17;17.73;;;16.17;;
1020;SDS011;499;42.648;23.270;2022-07-03T04:46:44;16.80;;;15.30;;
1020;SDS011;499;42.648;23.270;2022-07-03T04:49:11;17.33;;;15.93;;
1020;SDS011;499;42.648;23.270;2022-07-03T04:51:38;17.20;;;15.70;;
1020;SDS011;499;42.648;23.270;2022-07-03T04:54:05;16.37;;;14.90;;
1020;SDS011;499;42.648;23.270;2022-07-03T04:56:32;17.73;;;16.23;;
1020;SDS011;499;42.648;23.270;2022-07-03T04:59:01;18.17;;;16.37;;
1020;SDS011;499;42.648;23.270;2022-07-03T05:01:28;17.90;;;16.30;;
1020;SDS011;499;42.648;23.270;2022-07-03T05:03:55;16.57;;;15.17;;
1020;SDS011;499;42.648;23.270;2022-07-03T05:06:22;18.10;;;16.47;;
1020;SDS011;499;42.648;23.270;2022-07-03T05:08:51;17.10;;;15.40;;
1020;SDS011;499;42.648;23.270;2022-07-03T05:11:18;19.33;;;17.53;;
1020;SDS011;499;42.648;23.270;2022-07-03T05:13:45;19.43;;;17.83;;
1020;SDS011;499;42.648;23.270;2022-07-03T05:16:14;18.93;;;17.33;;
1020;SDS011;499;42.648;23.270;2022-07-03T05:18:41;16.95;;;15.45;;
1020;SDS011;499;42.648;23.270;2022-07-03T05:21:08;16.80;;;15.20;;
1020;SDS011;499;42.648;23.270;2022-07-03T05:23:35;17.30;;;15.80;;
1020;SDS011;499;42.648;23.270;2022-07-03T05:26:02;16.60;;;15.20;;
1020;SDS011;499;42.648;23.270;2022-07-03T05:28:29;18.27;;;16.37;;
1020;SDS011;499;42.648;23.270;2022-07-03T05:30:56;16.97;;;15.60;;
1020;SDS011;499;42.648;23.270;2022-07-03T05:33:25;17.53;;;16.13;;
1020;SDS011;499;42.648;23.270;2022-07-03T05:35:54;17.20;;;15.70;;
1020;SDS011;499;42.648;23.270;2022-07-03T05:38:21;16.60;;;15.07;;
1020;SDS011;499;42.648;23.270;2022-07-03T05:41:02;18.40;;;16.70;;
1020;SDS011;499;42.648;23.270;2022-07-03T05:43:29;17.73;;;16.23;;
1020;SDS011;499;42.648;23.270;2022-07-03T05:45:56;15.50;;;14.10;;
1020;SDS011;499;42.648;23.270;2022-07-03T05:48:24;16.10;;;14.60;;
1020;SDS011;499;42.648;23.270;2022-07-03T05:50:52;16.57;;;15.07;;
1020;SDS011;499;42.648;23.270;2022-07-03T05:53:19;16.93;;;15.10;;
1020;SDS011;499;42.648;23.270;2022-07-03T05:55:46;16.57;;;15.17;;
1020;SDS011;499;42.648;23.270;2022-07-03T05:58:13;17.60;;;15.97;;
1020;SDS011;499;42.648;23.270;2022-07-03T06:00:41;18.17;;;16.40;;
1020;SDS011;499;42.648;23.270;2022-07-03T06:03:08;17.03;;;15.53;;
1020;SDS011;499;42.648;23.270;2022-07-03T06:05:37;17.33;;;15.80;;
1020;SDS011;499;42.648;23.270;2022-07-03T06:08:05;17.60;;;16.20;;
1020;SDS011;499;42.648;23.270;2022-07-03T06:10:32;18.00;;;16.40;;
1020;SDS011;499;42.648;23.270;2022-07-03T06:12:59;16.47;;;14.97;;
1020;SDS011;499;42.648;23.270;2022-07-03T06:15:27;15.83;;;14.50;;
1020;SDS011;499;42.648;23.270;2022-07-03T06:17:54;16.07;;;14.57;;
1020;SDS011;499;42.648;23.270;2022-07-03T06:20:21;16.10;;;14.50;;
1020;SDS011;499;42.648;23.270;2022-07-03T06:22:49;16.30;;;14.80;;
1020;SDS011;499;42.648;23.270;2022-07-03T06:25:16;16.20;;;14.60;;
1020;SDS011;499;42.648;23.270;2022-07-03T06:27:43;15.53;;;14.17;;
1020;SDS011;499;42.648;23.270;2022-07-03T06:30:11;16.97;;;15.37;;
1020;SDS011;499;42.648;23.270;2022-07-03T06:32:38;15.13;;;13.73;;
1020;SDS011;499;42.648;23.270;2022-07-03T06:35:05;16.20;;;14.70;;
1020;SDS011;499;42.648;23.270;2022-07-03T06:37:33;16.45;;;14.95;;
1020;SDS011;499;42.648;23.270;2022-07-03T06:40:02;16.10;;;14.43;;
1020;SDS011;499;42.648;23.270;2022-07-03T06:42:29;16.35;;;14.85;;
1020;SDS011;499;42.648;23.270;2022-07-03T06:44:56;16.03;;;14.57;;
1020;SDS011;499;42.648;23.270;2022-07-03T06:47:23;16.20;;;14.57;;
1020;SDS011;499;42.648;23.270;2022-07-03T06:49:50;16.20;;;14.70;;
1020;SDS011;499;42.648;23.270;2022-07-03T06:52:17;16.20;;;14.70;;
1020;SDS011;499;42.648;23.270;2022-07-03T06:54:44;17.23;;;15.60;;
1020;SDS011;499;42.648;23.270;2022-07-03T06:57:13;16.00;;;14.53;;
1020;SDS011;499;42.648;23.270;2022-07-03T06:59:40;16.73;;;15.00;;
1020;SDS011;499;42.648;23.270;2022-07-03T07:02:07;15.82;;;14.50;;
1020;SDS011;499;42.648;23.270;2022-07-03T07:04:34;15.40;;;13.93;;
1020;SDS011;499;42.648;23.270;2022-07-03T07:07:02;15.90;;;14.40;;
1020;SDS011;499;42.648;23.270;2022-07-03T07:09:29;14.90;;;13.70;;
1020;SDS011;499;42.648;23.270;2022-07-03T07:11:56;17.77;;;16.17;;
1020;SDS011;499;42.648;23.270;2022-07-03T07:14:24;15.57;;;14.37;;
1020;SDS011;499;42.648;23.270;2022-07-03T07:16:51;16.17;;;14.80;;
1020;SDS011;499;42.648;23.270;2022-07-03T07:19:18;15.43;;;14.07;;
1020;SDS011;499;42.648;23.270;2022-07-03T07:21:46;16.13;;;14.73;;
1020;SDS011;499;42.648;23.270;2022-07-03T07:24:13;16.00;;;14.60;;
1020;SDS011;499;42.648;23.270;2022-07-03T07:26:40;16.90;;;15.40;;
1020;SDS011;499;42.648;23.270;2022-07-03T07:29:07;16.00;;;14.70;;
1020;SDS011;499;42.648;23.270;2022-07-03T07:31:35;15.83;;;14.17;;
1020;SDS011;499;42.648;23.270;2022-07-03T07:34:02;16.07;;;14.60;;
1020;SDS011;499;42.648;23.270;2022-07-03T07:36:30;16.83;;;15.37;;
1020;SDS011;499;42.648;23.270;2022-07-03T07:38:57;16.57;;;14.97;;
1020;SDS011;499;42.648;23.270;2022-07-03T07:41:24;16.10;;;14.70;;
1020;SDS011;499;42.648;23.270;2022-07-03T07:43:51;16.57;;;14.97;;
1020;SDS011;499;42.648;23.270;2022-07-03T07:46:18;16.60;;;15.17;;
1020;SDS011;499;42.648;23.270;2022-07-03T07:48:47;15.97;;;14.63;;
1020;SDS011;499;42.648;23.270;2022-07-03T07:51:14;15.90;;;14.60;;
1020;SDS011;499;42.648;23.270;2022-07-03T07:53:41;16.43;;;14.90;;
1020;SDS011;499;42.648;23.270;2022-07-03T07:56:08;16.45;;;15.00;;
1020;SDS011;499;42.648;23.270;2022-07-03T07:58:35;16.23;;;14.73;;
1020;SDS011;499;42.648;23.270;2022-07-03T08:01:02;15.53;;;13.90;;
1020;SDS011;499;42.648;23.270;2022-07-03T08:03:48;15.00;;;13.70;;
1020;SDS011;499;42.648;23.270;2022-07-03T08:06:32;14.77;;;13.45;;
1020;SDS011;499;42.648;23.270;2022-07-03T08:08:59;15.73;;;14.33;;
1020;SDS011;499;42.648;23.270;2022-07-03T08:11:27;16.83;;;14.25;;
1020;SDS011;499;42.648;23.270;2022-07-03T08:13:54;17.00;;;15.40;;
1020;SDS011;499;42.648;23.270;2022-07-03T08:16:23;15.20;;;13.90;;
1020;SDS011;499;42.648;23.270;2022-07-03T08:18:52;17.23;;;15.63;;
1020;SDS011;499;42.648;23.270;2022-07-03T08:21:19;15.80;;;14.50;;
1020;SDS011;499;42.648;23.270;2022-07-03T08:23:46;14.93;;;13.63;;
1020;SDS011;499;42.648;23.270;2022-07-03T08:26:13;13.60;;;12.30;;
1020;SDS011;499;42.648;23.270;2022-07-03T08:28:40;14.65;;;13.15;;
1020;SDS011;499;42.648;23.270;2022-07-03T08:31:08;14.53;;;13.13;;
1020;SDS011;499;42.648;23.270;2022-07-03T08:33:35;14.47;;;12.60;;
1020;SDS011;499;42.648;23.270;2022-07-03T08:36:03;14.53;;;13.13;;
1020;SDS011;499;42.648;23.270;2022-07-03T08:38:31;13.97;;;12.63;;
1020;SDS011;499;42.648;23.270;2022-07-03T08:41:00;14.63;;;13.30;;
1020;SDS011;499;42.648;23.270;2022-07-03T08:43:29;13.10;;;11.90;;
1020;SDS011;499;42.648;23.270;2022-07-03T08:45:57;13.13;;;11.80;;
1020;SDS011;499;42.648;23.270;2022-07-03T08:48:26;13.10;;;12.03;;
1020;SDS011;499;42.648;23.270;2022-07-03T08:50:54;12.83;;;11.80;;
1020;SDS011;499;42.648;23.270;2022-07-03T08:53:26;12.50;;;11.30;;
1020;SDS011;499;42.648;23.270;2022-07-03T08:55:53;12.13;;;11.10;;
1020;SDS011;499;42.648;23.270;2022-07-03T08:58:21;10.77;;;9.77;;
1020;SDS011;499;42.648;23.270;2022-07-03T09:00:49;13.67;;;12.57;;
1020;SDS011;499;42.648;23.270;2022-07-03T09:03:17;11.50;;;10.50;;
1020;SDS011;499;42.648;23.270;2022-07-03T09:05:50;13.63;;;12.40;;
1020;SDS011;499;42.648;23.270;2022-07-03T09:08:17;12.02;;;11.13;;
1020;SDS011;499;42.648;23.270;2022-07-03T09:10:46;10.43;;;9.63;;
1020;SDS011;499;42.648;23.270;2022-07-03T09:13:14;11.00;;;10.10;;
1020;SDS011;499;42.648;23.270;2022-07-03T09:15:41;11.00;;;9.90;;
1020;SDS011;499;42.648;23.270;2022-07-03T09:18:09;11.23;;;10.32;;
1020;SDS011;499;42.648;23.270;2022-07-03T09:20:37;10.70;;;9.70;;
1020;SDS011;499;42.648;23.270;2022-07-03T09:23:08;9.73;;;8.93;;
1020;SDS011;499;42.648;23.270;2022-07-03T09:25:54;9.77;;;8.00;;
1020;SDS011;499;42.648;23.270;2022-07-03T09:28:22;9.93;;;9.00;;
1020;SDS011;499;42.648;23.270;2022-07-03T09:30:57;8.87;;;8.17;;
1020;SDS011;499;42.648;23.270;2022-07-03T09:33:25;9.40;;;8.63;;
1020;SDS011;499;42.648;23.270;2022-07-03T09:35:53;8.80;;;8.10;;
1020;SDS011;499;42.648;23.270;2022-07-03T09:38:21;10.37;;;8.77;;
1020;SDS011;499;42.648;23.270;2022-07-03T09:40:49;8.40;;;7.70;;
1020;SDS011;499;42.648;23.270;2022-07-03T09:43:23;9.57;;;8.57;;
1020;SDS011;499;42.648;23.270;2022-07-03T09:45:54;8.53;;;7.83;;
1020;SDS011;499;42.648;23.270;2022-07-03T09:48:26;8.60;;;7.93;;
1020;SDS011;499;42.648;23.270;2022-07-03T09:51:07;12.63;;;8.33;;
1020;SDS011;499;42.648;23.270;2022-07-03T09:53:46;9.18;;;8.38;;
1020;SDS011;499;42.648;23.270;2022-07-03T09:56:16;9.43;;;8.63;;
1020;SDS011;499;42.648;23.270;2022-07-03T10:01:31;8.40;;;7.60;;
1020;SDS011;499;42.648;23.270;2022-07-03T10:06:54;7.60;;;7.00;;
1020;SDS011;499;42.648;23.270;2022-07-03T10:09:23;7.43;;;6.83;;
1020;SDS011;499;42.648;23.270;2022-07-03T10:11:51;8.20;;;6.10;;
1020;SDS011;499;42.648;23.270;2022-07-03T10:14:21;7.70;;;6.87;;
1020;SDS011;499;42.648;23.270;2022-07-03T10:16:49;7.20;;;6.60;;
1020;SDS011;499;42.648;23.270;2022-07-03T10:19:17;6.90;;;6.30;;
1020;SDS011;499;42.648;23.270;2022-07-03T10:21:47;7.37;;;6.77;;
1020;SDS011;499;42.648;23.270;2022-07-03T10:24:18;6.77;;;6.27;;
1020;SDS011;499;42.648;23.270;2022-07-03T10:26:48;6.95;;;6.35;;
1020;SDS011;499;42.648;23.270;2022-07-03T10:29:16;6.05;;;5.65;;
1020;SDS011;499;42.648;23.270;2022-07-03T10:31:47;6.20;;;5.60;;
1020;SDS011;499;42.648;23.270;2022-07-03T10:34:15;6.97;;;6.37;;
1020;SDS011;499;42.648;23.270;2022-07-03T10:36:45;6.27;;;5.70;;
1020;SDS011;499;42.648;23.270;2022-07-03T10:39:20;6.70;;;6.20;;
1020;SDS011;499;42.648;23.270;2022-07-03T10:41:56;6.07;;;5.60;;
1020;SDS011;499;42.648;23.270;2022-07-03T10:44:49;6.17;;;5.67;;
1020;SDS011;499;42.648;23.270;2022-07-03T10:47:38;5.80;;;5.30;;
1020;SDS011;499;42.648;23.270;2022-07-03T10:50:09;5.13;;;4.73;;
1020;SDS011;499;42.648;23.270;2022-07-03T10:52:37;5.77;;;5.37;;
1020;SDS011;499;42.648;23.270;2022-07-03T10:55:05;6.80;;;5.53;;
1020;SDS011;499;42.648;23.270;2022-07-03T10:57:33;7.15;;;5.88;;
1020;SDS011;499;42.648;23.270;2022-07-03T11:02:45;6.90;;;6.30;;
1020;SDS011;499;42.648;23.270;2022-07-03T11:05:23;5.82;;;5.32;;
1020;SDS011;499;42.648;23.270;2022-07-03T11:08:06;5.78;;;5.38;;
1020;SDS011;499;42.648;23.270;2022-07-03T11:10:38;5.57;;;5.17;;
1020;SDS011;499;42.648;23.270;2022-07-03T11:13:10;5.47;;;4.97;;
1020;SDS011;499;42.648;23.270;2022-07-03T11:15:41;5.90;;;5.50;;
1020;SDS011;499;42.648;23.270;2022-07-03T11:18:16;6.13;;;5.63;;
1020;SDS011;499;42.648;23.270;2022-07-03T11:21:02;6.07;;;5.57;;
1020;SDS011;499;42.648;23.270;2022-07-03T11:24:03;6.47;;;5.97;;
1020;SDS011;499;42.648;23.270;2022-07-03T11:27:11;6.43;;;5.73;;
1020;SDS011;499;42.648;23.270;2022-07-03T11:29:49;5.83;;;5.33;;
1020;SDS011;499;42.648;23.270;2022-07-03T11:38:17;6.93;;;6.43;;
1020;SDS011;499;42.648;23.270;2022-07-03T11:40:48;7.00;;;6.47;;
1020;SDS011;499;42.648;23.270;2022-07-03T11:43:16;6.77;;;6.17;;
1020;SDS011;499;42.648;23.270;2022-07-03T11:45:43;7.10;;;6.47;;
1020;SDS011;499;42.648;23.270;2022-07-03T11:48:13;6.73;;;6.23;;
1020;SDS011;499;42.648;23.270;2022-07-03T11:50:43;8.23;;;6.00;;
1020;SDS011;499;42.648;23.270;2022-07-03T11:53:21;6.77;;;6.27;;
1020;SDS011;499;42.648;23.270;2022-07-03T11:55:50;7.40;;;6.77;;
1020;SDS011;499;42.648;23.270;2022-07-03T11:58:18;7.30;;;6.70;;
1020;SDS011;499;42.648;23.270;2022-07-03T12:00:45;6.73;;;6.13;;
1020;SDS011;499;42.648;23.270;2022-07-03T12:03:21;6.97;;;6.37;;
1020;SDS011;499;42.648;23.270;2022-07-03T12:05:49;6.87;;;6.27;;
1020;SDS011;499;42.648;23.270;2022-07-03T12:08:22;7.20;;;6.50;;
1020;SDS011;499;42.648;23.270;2022-07-03T12:11:01;7.13;;;6.53;;
1020;SDS011;499;42.648;23.270;2022-07-03T12:13:32;7.23;;;6.63;;
1020;SDS011;499;42.648;23.270;2022-07-03T12:16:06;7.87;;;7.17;;
1020;SDS011;499;42.648;23.270;2022-07-03T12:18:41;7.57;;;6.87;;
1020;SDS011;499;42.648;23.270;2022-07-03T12:21:09;7.77;;;7.10;;
1020;SDS011;499;42.648;23.270;2022-07-03T12:23:41;7.80;;;6.27;;
1020;SDS011;499;42.648;23.270;2022-07-03T12:26:10;6.77;;;6.23;;
1020;SDS011;499;42.648;23.270;2022-07-03T12:28:38;7.27;;;6.57;;
1020;SDS011;499;42.648;23.270;2022-07-03T12:31:05;6.80;;;6.23;;
1020;SDS011;499;42.648;23.270;2022-07-03T12:33:33;6.30;;;5.70;;
1020;SDS011;499;42.648;23.270;2022-07-03T12:36:02;7.17;;;6.57;;
1020;SDS011;499;42.648;23.270;2022-07-03T12:38:32;7.87;;;7.07;;
1020;SDS011;499;42.648;23.270;2022-07-03T12:41:04;6.87;;;6.30;;
1020;SDS011;499;42.648;23.270;2022-07-03T12:43:38;7.65;;;6.28;;
1020;SDS011;499;42.648;23.270;2022-07-03T12:46:16;7.67;;;7.07;;
1020;SDS011;499;42.648;23.270;2022-07-03T12:48:44;13.63;;;8.93;;
1020;SDS011;499;42.648;23.270;2022-07-03T12:51:12;7.77;;;7.07;;
1020;SDS011;499;42.648;23.270;2022-07-03T12:53:39;7.70;;;7.10;;
1020;SDS011;499;42.648;23.270;2022-07-03T12:56:09;10.17;;;9.07;;
1020;SDS011;499;42.648;23.270;2022-07-03T12:58:37;7.10;;;6.60;;
1020;SDS011;499;42.648;23.270;2022-07-03T13:01:26;8.27;;;7.47;;
1020;SDS011;499;42.648;23.270;2022-07-03T13:03:54;7.37;;;6.77;;
1020;SDS011;499;42.648;23.270;2022-07-03T13:06:22;7.97;;;7.30;;
1020;SDS011;499;42.648;23.270;2022-07-03T13:08:53;8.67;;;7.90;;
1020;SDS011;499;42.648;23.270;2022-07-03T13:11:26;8.23;;;7.50;;
1020;SDS011;499;42.648;23.270;2022-07-03T13:14:04;8.60;;;7.73;;
1020;SDS011;499;42.648;23.270;2022-07-03T13:16:37;9.10;;;8.30;;
1020;SDS011;499;42.648;23.270;2022-07-03T13:19:09;7.17;;;6.60;;
1020;SDS011;499;42.648;23.270;2022-07-03T13:21:37;7.53;;;6.80;;
1020;SDS011;499;42.648;23.270;2022-07-03T13:24:05;7.80;;;7.00;;
1020;SDS011;499;42.648;23.270;2022-07-03T13:26:34;9.52;;;6.55;;
1020;SDS011;499;42.648;23.270;2022-07-03T13:29:01;7.93;;;7.27;;
1020;SDS011;499;42.648;23.270;2022-07-03T13:31:29;7.83;;;7.23;;
1020;SDS011;499;42.648;23.270;2022-07-03T13:33:56;8.43;;;7.73;;
1020;SDS011;499;42.648;23.270;2022-07-03T13:36:24;8.03;;;7.23;;
1020;SDS011;499;42.648;23.270;2022-07-03T13:38:51;7.97;;;7.17;;
1020;SDS011;499;42.648;23.270;2022-07-03T13:41:18;8.07;;;7.47;;
1020;SDS011;499;42.648;23.270;2022-07-03T13:43:47;7.63;;;7.03;;
1020;SDS011;499;42.648;23.270;2022-07-03T13:46:15;7.07;;;6.47;;
1020;SDS011;499;42.648;23.270;2022-07-03T13:48:42;8.23;;;7.40;;
1020;SDS011;499;42.648;23.270;2022-07-03T13:51:09;7.93;;;6.97;;
1020;SDS011;499;42.648;23.270;2022-07-03T13:53:36;8.23;;;7.50;;
1020;SDS011;499;42.648;23.270;2022-07-03T13:56:04;8.13;;;7.30;;
1020;SDS011;499;42.648;23.270;2022-07-03T13:58:31;7.50;;;6.90;;
1020;SDS011;499;42.648;23.270;2022-07-03T14:01:00;7.70;;;7.10;;
1020;SDS011;499;42.648;23.270;2022-07-03T14:03:27;7.60;;;7.00;;
1020;SDS011;499;42.648;23.270;2022-07-03T14:05:54;8.00;;;7.40;;
1020;SDS011;499;42.648;23.270;2022-07-03T14:08:21;8.70;;;7.83;;
1020;SDS011;499;42.648;23.270;2022-07-03T14:10:48;8.60;;;7.70;;
1020;SDS011;499;42.648;23.270;2022-07-03T14:13:16;9.10;;;8.40;;
1020;SDS011;499;42.648;23.270;2022-07-03T14:15:43;8.10;;;7.40;;
1020;SDS011;499;42.648;23.270;2022-07-03T14:18:11;9.37;;;8.03;;
1020;SDS011;499;42.648;23.270;2022-07-03T14:20:39;9.30;;;8.50;;
1020;SDS011;499;42.648;23.270;2022-07-03T14:23:06;8.40;;;7.70;;
1020;SDS011;499;42.648;23.270;2022-07-03T14:25:33;10.13;;;8.30;;
1020;SDS011;499;42.648;23.270;2022-07-03T14:28:02;8.77;;;7.93;;
1020;SDS011;499;42.648;23.270;2022-07-03T14:30:47;8.43;;;7.80;;
1020;SDS011;499;42.648;23.270;2022-07-03T14:33:32;10.73;;;8.50;;
1020;SDS011;499;42.648;23.270;2022-07-03T14:36:00;9.50;;;8.67;;
1020;SDS011;499;42.648;23.270;2022-07-03T14:38:27;8.63;;;7.73;;
1020;SDS011;499;42.648;23.270;2022-07-03T14:40:54;10.70;;;8.77;;
1020;SDS011;499;42.648;23.270;2022-07-03T14:43:21;9.47;;;8.57;;
1020;SDS011;499;42.648;23.270;2022-07-03T14:45:48;8.93;;;8.20;;
1020;SDS011;499;42.648;23.270;2022-07-03T14:48:15;9.87;;;8.90;;
1020;SDS011;499;42.648;23.270;2022-07-03T14:50:43;9.47;;;8.73;;
1020;SDS011;499;42.648;23.270;2022-07-03T14:53:10;9.70;;;8.90;;
1020;SDS011;499;42.648;23.270;2022-07-03T14:55:38;9.43;;;8.63;;
1020;SDS011;499;42.648;23.270;2022-07-03T14:58:11;10.40;;;9.50;;
1020;SDS011;499;42.648;23.270;2022-07-03T15:00:45;9.23;;;7.67;;
1020;SDS011;499;42.648;23.270;2022-07-03T15:03:15;8.88;;;8.18;;
1020;SDS011;499;42.648;23.270;2022-07-03T15:05:46;8.70;;;8.00;;
1020;SDS011;499;42.648;23.270;2022-07-03T15:11:14;8.00;;;7.40;;
1020;SDS011;499;42.648;23.270;2022-07-03T15:14:00;8.50;;;7.70;;
1020;SDS011;499;42.648;23.270;2022-07-03T15:16:29;9.50;;;8.70;;
1020;SDS011;499;42.648;23.270;2022-07-03T15:18:58;8.60;;;7.93;;
1020;SDS011;499;42.648;23.270;2022-07-03T15:21:29;9.18;;;8.48;;
1020;SDS011;499;42.648;23.270;2022-07-03T15:23:59;8.50;;;7.80;;
1020;SDS011;499;42.648;23.270;2022-07-03T15:26:28;10.20;;;7.70;;
1020;SDS011;499;42.648;23.270;2022-07-03T15:28:57;7.80;;;7.20;;
1020;SDS011;499;42.648;23.270;2022-07-03T15:31:25;8.70;;;8.10;;
1020;SDS011;499;42.648;23.270;2022-07-03T15:33:53;8.70;;;7.90;;
1020;SDS011;499;42.648;23.270;2022-07-03T15:36:21;8.27;;;7.67;;